Main page
METAR-TAF:

METAR-TAF

Airports :

Udine, Italy

Rivolto Air Base

latitude: 45-59N, longitude: 013-02E, elevation: 51 m

Current weather observation

The report was made 8 hours and 34 minutes ago, at 13:55 UTC
Temperature 27°C
Humidity 48%
Pressure 1015 hPa
Visibility 10 km or more
Few clouds at a height of 3500 ft

METAR: LIPI 231355Z /////KT 9999 FEW035 27/15 Q1015 RMK SCT VIS MIN 9999 WIND THR06 18004KT WIND THR24 21004KT BLU

Time: 00:29 (22:29 UTC)

Forecast

The report was made 11 hours and 29 minutes ago, at 11:00 UTC
Forecast valid from 23 at 12 UTC to 23 at 21 UTC
Wind 5 kt from variable directions
Visibility 10 km or more
Scattered clouds at a height of 4000 ft
Temporary
from 23 at 15 UTC to 23 at 21 UTC
Few clouds at a height of 2500 ft, Cumulonimbus.
Scattered clouds at a height of 3500 ft
Probability 30% :
Temporary
from 23 at 18 UTC to 23 at 21 UTC
Visibility: 5000 m
thunderstorm, rain

TAF: LIPI 231100Z 2312/2321 VRB05KT 9999 SCT040 TEMPO 2315/2321 FEW025CB SCT035 PROB30 TEMPO 2318/2321 5000 TSRA

Weather observations and forecasts of more than 4000 airports (METAR and TAF reports).

The available stations are represented by yellow and red dots on the map.

Hover mouse over dot to see the name of the station.

Then click to see weather observations and forecasts.

To change the map : click on the green buttons with a black cross to zoom in, on the green button with a dash to zoom out, or on the green arrows for adjacent maps.


METAR-TAF: